createdAt,value
2018-04-28T00:01:56.795Z,6.83
2018-04-28T00:07:47.501Z,7.6
2018-04-28T00:13:38.292Z,6.6
2018-04-28T00:19:28.977Z,6.4
2018-04-28T00:25:19.711Z,7.14
2018-04-28T00:31:10.427Z,7.48
2018-04-28T00:37:01.187Z,7.21
2018-04-28T00:42:51.909Z,8.03
2018-04-28T00:48:42.623Z,6.7
2018-04-28T00:54:33.525Z,7.62
2018-04-28T01:00:24.150Z,6.64
2018-04-28T01:06:15.018Z,7.52
2018-04-28T01:12:05.541Z,7.74
2018-04-28T01:17:56.290Z,8.36
2018-04-28T01:23:47.010Z,7.47
2018-04-28T01:29:37.706Z,6.76
2018-04-28T01:35:28.463Z,6.96
2018-04-28T01:41:19.181Z,8.63
2018-04-28T01:47:09.918Z,7
2018-04-28T01:53:00.671Z,7.73
2018-04-28T01:58:51.395Z,7.83
2018-04-28T02:04:42.102Z,7.89
2018-04-28T02:10:32.810Z,7.56
2018-04-28T02:16:23.560Z,7.77
2018-04-28T02:22:14.249Z,8.22
2018-04-28T02:28:05.008Z,8.11
2018-04-28T02:33:55.727Z,7.98
2018-04-28T02:39:46.449Z,7.66
2018-04-28T02:45:37.202Z,8.74
2018-04-28T02:51:27.936Z,8.04
2018-04-28T02:57:18.633Z,8.25
2018-04-28T03:03:09.410Z,8.58
2018-04-28T03:09:00.134Z,8.05
2018-04-28T03:14:50.821Z,8.6
2018-04-28T03:20:41.546Z,8.38
2018-04-28T03:26:32.273Z,8.32
2018-04-28T03:32:23.017Z,8.63
2018-04-28T03:38:13.749Z,8.86
2018-04-28T03:44:04.489Z,7.71
2018-04-28T03:49:55.216Z,8.48
2018-04-28T03:55:45.941Z,9.32
2018-04-28T04:01:36.626Z,10.51
2018-04-28T04:07:27.368Z,8.89
2018-04-28T04:13:18.106Z,9.57
2018-04-28T04:19:08.824Z,9.89
2018-04-28T04:24:59.548Z,8.72
2018-04-28T04:30:50.255Z,9.13
2018-04-28T04:36:40.984Z,9.54
2018-04-28T04:42:31.705Z,9.31
2018-04-28T04:48:22.483Z,10.13
2018-04-28T04:54:13.187Z,8.29
2018-04-28T05:00:03.921Z,9.46
2018-04-28T05:05:54.610Z,9.5
2018-04-28T05:11:45.370Z,8.92
2018-04-28T05:17:36.071Z,9.76
2018-04-28T05:23:26.848Z,9.87
2018-04-28T05:29:17.593Z,8.86
2018-04-28T05:35:08.279Z,9.8
2018-04-28T05:40:59.010Z,8.37
2018-04-28T05:46:49.763Z,10.31
2018-04-28T05:52:40.458Z,9.29
2018-04-28T05:58:31.225Z,9.87
2018-04-28T06:04:21.893Z,9.07
2018-04-28T06:10:12.604Z,9.7
2018-04-28T06:16:03.338Z,9.78
2018-04-28T06:21:54.075Z,9.35
2018-04-28T06:27:44.788Z,8.29
2018-04-28T06:33:35.508Z,9.5
2018-04-28T06:39:26.286Z,8.11
2018-04-28T06:45:16.932Z,8.48
2018-04-28T06:51:07.766Z,8.25
2018-04-28T06:56:58.422Z,7.43
2018-04-28T07:02:49.180Z,7.17
2018-04-28T07:08:39.861Z,7.35
2018-04-28T07:14:30.573Z,6.91
2018-04-28T07:20:21.378Z,7.12
2018-04-28T07:26:12.055Z,6.5
2018-04-28T07:32:02.751Z,6.14
2018-04-28T07:37:53.556Z,6.6
2018-04-28T07:43:44.207Z,5.77
2018-04-28T07:49:34.951Z,6.1
2018-04-28T07:55:25.707Z,5.47
2018-04-28T08:01:16.434Z,5.38
2018-04-28T08:07:07.251Z,5.21
2018-04-28T08:12:57.845Z,5.92
2018-04-28T08:18:48.611Z,5.61
2018-04-28T08:24:39.366Z,5.78
2018-04-28T08:30:30.101Z,5.44
2018-04-28T08:36:20.795Z,5.38
2018-04-28T08:42:11.557Z,4.78
2018-04-28T08:48:02.272Z,4.85
2018-04-28T08:53:53.026Z,5.86
2018-04-28T08:59:43.768Z,4.5
2018-04-28T09:05:34.488Z,4.39
2018-04-28T09:11:25.212Z,4.79
2018-04-28T09:17:15.985Z,3.93
2018-04-28T09:23:06.747Z,4.99
2018-04-28T09:28:57.451Z,5.25
2018-04-28T09:34:48.191Z,4.91
2018-04-28T09:40:38.983Z,4.2
2018-04-28T09:46:29.747Z,4.5
2018-04-28T09:52:20.438Z,4.99
2018-04-28T09:58:11.235Z,5.04
2018-04-28T10:04:01.928Z,4.57
2018-04-28T10:09:52.683Z,4.85
2018-04-28T10:15:43.482Z,4.35
2018-04-28T10:21:34.175Z,4.78
2018-04-28T10:27:24.956Z,4.55
2018-04-28T10:33:15.661Z,5
2018-04-28T10:39:06.439Z,4.84
2018-04-28T10:44:57.170Z,4.16
2018-04-28T10:50:47.936Z,4.12
2018-04-28T10:56:38.709Z,3.78
2018-04-28T11:02:29.437Z,3.58
2018-04-28T11:08:20.158Z,3.64
2018-04-28T11:14:10.946Z,3.3
2018-04-28T11:20:01.731Z,3.78
2018-04-28T11:25:52.563Z,4.15
2018-04-28T11:31:43.201Z,4.35
2018-04-28T11:37:33.995Z,3.78
2018-04-28T11:43:24.763Z,4.31
2018-04-28T11:49:15.472Z,4.25
2018-04-28T11:55:06.240Z,4.29
2018-04-28T12:00:57.037Z,4.15
2018-04-28T12:06:47.769Z,4.14
2018-04-28T12:12:38.601Z,4.53
2018-04-28T12:18:29.310Z,3.81
2018-04-28T12:24:20.047Z,3.22
2018-04-28T12:30:10.852Z,3.39
2018-04-28T12:36:01.682Z,3.55
2018-04-28T12:41:52.389Z,4.09
2018-04-28T12:47:43.143Z,4.01
2018-04-28T12:53:33.935Z,3.2
2018-04-28T12:59:24.661Z,3.97
2018-04-28T13:05:15.454Z,3.58
2018-04-28T13:11:06.204Z,3.51
2018-04-28T13:16:56.958Z,3.87
2018-04-28T13:22:47.756Z,3.72
2018-04-28T13:28:38.613Z,4.69
2018-04-28T13:34:29.302Z,2.81
2018-04-28T13:40:20.086Z,4.01
2018-04-28T13:46:10.877Z,3.64
2018-04-28T13:52:01.675Z,3.96
2018-04-28T13:57:52.437Z,3.72
2018-04-28T14:03:43.193Z,3.79
2018-04-28T14:09:33.961Z,3.65
2018-04-28T14:15:24.737Z,3.52
2018-04-28T14:21:15.585Z,3.75
2018-04-28T14:27:06.370Z,4.14
2018-04-28T14:32:57.113Z,3.81
2018-04-28T14:38:47.881Z,3.8
2018-04-28T14:44:38.650Z,3.81
2018-04-28T14:50:29.446Z,4.52
2018-04-28T14:56:20.261Z,4.16
2018-04-28T15:02:11.054Z,4.24
2018-04-28T15:08:01.826Z,5.12
2018-04-28T15:13:52.612Z,4.43
2018-04-28T15:19:43.401Z,4.84
2018-04-28T15:25:34.164Z,4.37
2018-04-28T15:31:24.951Z,4.32
2018-04-28T15:37:15.715Z,5.06
2018-04-28T15:43:06.646Z,5.01
2018-04-28T15:48:57.333Z,4.93
2018-04-28T15:54:48.064Z,6.14
2018-04-28T16:00:38.797Z,4.17
2018-04-28T16:06:29.595Z,4.65
2018-04-28T16:12:20.377Z,4.55
2018-04-28T16:18:11.150Z,5.62
2018-04-28T16:24:01.939Z,5.45
2018-04-28T16:29:52.662Z,5.06
2018-04-28T16:35:43.437Z,5.17
2018-04-28T16:41:34.195Z,5.35
2018-04-28T16:47:24.989Z,5.27
2018-04-28T16:53:15.750Z,6.14
2018-04-28T16:59:06.555Z,5.23
2018-04-28T17:04:57.252Z,6.12
2018-04-28T17:10:48.038Z,6.49
2018-04-28T17:16:38.789Z,7.56
2018-04-28T17:22:29.585Z,7.59
2018-04-28T17:28:20.306Z,7.22
2018-04-28T17:34:11.070Z,8.88
2018-04-28T17:40:01.848Z,8.45
2018-04-28T17:45:52.612Z,7.99
2018-04-28T17:51:43.331Z,8.31
2018-04-28T17:57:34.135Z,8.54
2018-04-28T18:03:24.892Z,9.84
2018-04-28T18:09:15.656Z,10.12
2018-04-28T18:15:06.329Z,11.14
2018-04-28T18:20:57.094Z,8.51
2018-04-28T18:26:47.784Z,8.85
2018-04-28T18:32:38.590Z,7.94
2018-04-28T18:38:29.346Z,8.22
2018-04-28T18:44:20.070Z,9.31
2018-04-28T18:50:10.793Z,8.3
2018-04-28T18:56:01.595Z,8.93
2018-04-28T19:01:52.323Z,9.79
2018-04-28T19:07:43.030Z,8.35
2018-04-28T19:13:33.802Z,8.83
2018-04-28T19:19:24.564Z,10.69
2018-04-28T19:25:15.265Z,8.54
2018-04-28T19:31:06.007Z,8.95
2018-04-28T19:36:56.776Z,9.76
2018-04-28T19:42:47.579Z,8.69
2018-04-28T19:48:38.324Z,9.04
2018-04-28T19:54:28.979Z,9.37
2018-04-28T20:00:19.816Z,9.2
2018-04-28T20:06:10.495Z,10.35
2018-04-28T20:12:01.230Z,9.45
2018-04-28T20:17:51.949Z,9.24
2018-04-28T20:23:42.741Z,10.12
2018-04-28T20:29:33.460Z,9.56
2018-04-28T20:41:14.979Z,10.07
2018-04-28T20:47:05.689Z,9.25
2018-04-28T20:52:56.434Z,7.96
2018-04-28T20:58:47.142Z,8.43
2018-04-28T21:04:37.891Z,7.96
2018-04-28T21:10:28.703Z,8.22
2018-04-28T21:16:19.446Z,7.78
2018-04-28T21:22:10.137Z,8.33
2018-04-28T21:28:00.891Z,6.99
2018-04-28T21:33:51.650Z,7.53
2018-04-28T21:39:42.367Z,7
2018-04-28T21:45:33.092Z,6.92
2018-04-28T21:51:23.842Z,6.14
2018-04-28T21:57:14.540Z,6.87
2018-04-28T22:03:05.314Z,6.47
2018-04-28T22:08:56.033Z,6.7
2018-04-28T22:14:46.784Z,6.68
2018-04-28T22:20:37.533Z,5.87
2018-04-28T22:26:28.316Z,6.54
2018-04-28T22:32:19.072Z,6.44
2018-04-28T22:38:09.742Z,6.31
2018-04-28T22:44:00.447Z,6.95
2018-04-28T22:49:51.192Z,6.38
2018-04-28T22:55:41.927Z,6.15
2018-04-28T23:01:32.677Z,6.76
2018-04-28T23:07:23.489Z,6.12
2018-04-28T23:13:14.143Z,5.96
2018-04-28T23:19:04.888Z,5.74
2018-04-28T23:24:55.623Z,5.93
2018-04-28T23:30:46.319Z,5.78
2018-04-28T23:36:37.056Z,5.78
2018-04-28T23:42:27.798Z,5.55
2018-04-28T23:48:18.508Z,7.69
2018-04-28T23:54:09.290Z,6.32
2018-04-28T23:59:59.977Z,5.63
